Time;durP1;ratioP1;P1;durP2;ratioP2;P2;SDS_P1;SDS_P2;PMS_P1;PMS_P2;Temp;Humidity;BMP_temperature;BMP_pressure;BME280_temperature;BME280_humidity;BME280_pressure;Samples;Min_cycle;Max_cycle;Signal;HPM_P1;HPM_P2
2023/07/14 00:01:56;;;;;;;14.87;5.60;;;;;;;24.83;63.35;99922.59;126934;1086;104264;-79
2023/07/14 00:04:29;;;;;;;13.20;5.63;;;;;;;24.77;62.98;99923.66;126827;1086;104194;-79
2023/07/14 00:06:57;;;;;;;13.00;5.63;;;;;;;24.72;63.71;99926.48;126906;1086;102309;-79
2023/07/14 00:09:28;;;;;;;15.37;5.67;;;;;;;24.72;63.34;99942.58;126860;1086;104204;-79
2023/07/14 00:11:57;;;;;;;16.27;5.70;;;;;;;24.70;63.67;99941.77;126795;1086;101918;-79
2023/07/14 00:14:26;;;;;;;15.03;5.27;;;;;;;24.67;63.41;99933.81;126878;1086;102226;-80
2023/07/14 00:16:55;;;;;;;18.37;6.10;;;;;;;24.67;63.85;99919.53;126878;1086;102236;-78
2023/07/14 00:19:25;;;;;;;12.80;5.63;;;;;;;24.67;63.80;99924.90;126904;1086;104169;-78
2023/07/14 00:21:54;;;;;;;18.73;6.00;;;;;;;24.67;63.95;99933.81;127071;1086;104264;-78
2023/07/14 00:24:23;;;;;;;12.10;5.37;;;;;;;24.66;63.83;99923.13;127149;1086;101839;-78
2023/07/14 00:26:55;;;;;;;15.57;6.00;;;;;;;24.62;64.14;99935.77;127071;1086;102274;-78
2023/07/14 00:29:34;;;;;;;19.07;6.30;;;;;;;24.58;64.45;99950.19;126857;1086;104233;-78
2023/07/14 00:32:12;;;;;;;16.93;6.57;;;;;;;24.47;64.35;99955.84;126987;1086;104191;-76
2023/07/14 00:34:41;;;;;;;17.00;6.40;;;;;;;24.37;64.75;99957.94;126936;1086;110798;-79
2023/07/14 00:37:10;;;;;;;14.30;5.80;;;;;;;24.23;65.58;99958.34;127049;1086;101842;-78
2023/07/14 00:39:39;;;;;;;15.23;6.10;;;;;;;24.03;66.39;99966.09;126941;1086;104261;-77
2023/07/14 00:42:13;;;;;;;15.00;5.80;;;;;;;23.84;66.59;99953.20;126756;1086;104210;-78
2023/07/14 00:44:42;;;;;;;15.67;6.03;;;;;;;23.75;66.70;99968.59;127106;1086;101832;-78
2023/07/14 00:47:19;;;;;;;21.87;6.97;;;;;;;23.67;67.25;99958.98;127234;1086;102438;-78
2023/07/14 00:49:49;;;;;;;17.03;6.17;;;;;;;23.61;67.52;99959.15;127181;1086;101813;-78
2023/07/14 00:52:25;;;;;;;14.93;5.93;;;;;;;23.55;68.14;99947.73;127095;1085;104312;-79
2023/07/14 00:54:53;;;;;;;19.70;6.53;;;;;;;23.47;68.06;99946.13;127084;1086;102808;-78
2023/07/14 00:57:26;;;;;;;15.87;6.00;;;;;;;23.41;68.47;99937.38;126746;1086;104158;-80
2023/07/14 01:00:01;;;;;;;14.50;6.37;;;;;;;23.36;69.27;99940.17;126919;1086;104634;-79
2023/07/14 01:02:29;;;;;;;16.70;6.37;;;;;;;23.28;69.56;99961.78;126851;1086;102034;-80
2023/07/14 01:05:02;;;;;;;15.87;6.50;;;;;;;23.18;69.70;99967.41;126981;1085;101998;-79
2023/07/14 01:07:35;;;;;;;17.87;6.90;;;;;;;23.09;71.15;99968.50;126896;1086;104252;-79
2023/07/14 01:10:08;;;;;;;16.37;6.27;;;;;;;23.00;71.15;99957.98;126694;1086;104292;-79
2023/07/14 01:12:40;;;;;;;15.77;6.30;;;;;;;22.92;71.20;99959.06;126937;1086;101968;-79
2023/07/14 01:15:10;;;;;;;19.47;6.40;;;;;;;22.87;72.29;99971.64;126833;1086;104226;-79
2023/07/14 01:17:39;;;;;;;16.80;6.80;;;;;;;22.79;72.73;99968.28;126899;1086;104296;-80
2023/07/14 01:20:09;;;;;;;13.70;6.27;;;;;;;22.72;73.33;99972.00;126700;1086;102024;-79
2023/07/14 01:22:47;;;;;;;17.90;6.50;;;;;;;22.67;73.35;99963.21;127090;1086;104210;-78
2023/07/14 01:25:29;;;;;;;17.23;6.13;;;;;;;22.63;72.88;99962.41;127075;1086;104177;-79
2023/07/14 01:27:57;;;;;;;18.53;6.63;;;;;;;22.59;73.70;99966.95;127050;1086;102149;-78
2023/07/14 01:30:26;;;;;;;18.90;6.23;;;;;;;22.58;73.27;99970.53;126836;1086;104153;-79
2023/07/14 01:32:55;;;;;;;17.93;6.27;;;;;;;22.59;73.46;99966.05;126832;1086;101940;-79
2023/07/14 01:35:30;;;;;;;18.87;6.47;;;;;;;22.58;73.65;99966.98;126895;1086;102009;-78
2023/07/14 01:37:59;;;;;;;13.33;6.10;;;;;;;22.55;74.85;99972.41;126870;1086;102395;-78
2023/07/14 01:40:29;;;;;;;18.53;6.67;;;;;;;22.53;74.69;99972.44;126985;1086;101778;-79
2023/07/14 01:43:00;;;;;;;16.40;5.97;;;;;;;22.51;74.75;99976.05;126926;1086;104229;-78
2023/07/14 01:45:37;;;;;;;16.97;6.33;;;;;;;22.49;76.07;99968.06;126894;1086;102624;-78
2023/07/14 01:48:09;;;;;;;11.93;6.13;;;;;;;22.42;75.10;99966.42;126936;1085;104196;-78
2023/07/14 01:50:42;;;;;;;16.00;6.00;;;;;;;22.39;75.69;99958.47;126846;1085;104302;-79
2023/07/14 01:53:16;;;;;;;14.17;5.97;;;;;;;22.37;76.13;99958.50;126603;1086;102026;-79
2023/07/14 01:55:47;;;;;;;13.97;5.80;;;;;;;22.33;76.52;99959.50;126862;1086;104187;-78
2023/07/14 01:58:19;;;;;;;17.47;6.33;;;;;;;22.31;77.35;99953.28;126745;1086;104469;-78
2023/07/14 02:00:51;;;;;;;15.40;5.63;;;;;;;22.29;77.04;99955.09;126759;1086;104181;-79
2023/07/14 02:03:26;;;;;;;14.77;5.90;;;;;;;22.28;76.65;99973.83;127005;1086;102063;-78
2023/07/14 02:05:55;;;;;;;14.40;5.47;;;;;;;22.29;77.16;100003.19;126671;1086;104298;-78
2023/07/14 02:08:24;;;;;;;16.00;6.03;;;;;;;22.30;77.30;100014.75;126927;1086;104232;-79
2023/07/14 02:10:53;;;;;;;17.77;6.10;;;;;;;22.30;77.23;100012.08;126925;1085;104172;-79
2023/07/14 02:13:23;;;;;;;14.37;5.47;;;;;;;22.28;77.13;99997.88;126868;1086;104064;-79
2023/07/14 02:15:53;;;;;;;11.90;5.87;;;;;;;22.23;77.44;100006.86;126829;1086;102643;-79
2023/07/14 02:18:26;;;;;;;13.47;5.50;;;;;;;22.22;78.54;100001.55;126853;1086;102064;-79
2023/07/14 02:20:56;;;;;;;16.93;5.78;;;;;;;22.19;78.57;99998.93;126862;1086;102009;-78
2023/07/14 02:23:27;;;;;;;13.93;5.80;;;;;;;22.18;78.71;99997.19;126874;1085;102063;-78
2023/07/14 02:26:05;;;;;;;16.17;6.20;;;;;;;22.17;79.59;99985.60;127157;1085;104178;-78
2023/07/14 02:28:34;;;;;;;17.60;5.97;;;;;;;22.15;80.18;99970.53;126807;1086;104238;-78
2023/07/14 02:31:22;;;;;;;12.57;5.60;;;;;;;22.13;80.30;99985.70;127043;1086;104174;-78
2023/07/14 02:33:51;;;;;;;12.60;5.70;;;;;;;22.12;80.44;100005.33;126892;1086;104185;-78
2023/07/14 02:36:36;;;;;;;15.37;5.80;;;;;;;22.10;80.91;100024.06;126868;1086;104274;-78
2023/07/14 02:39:05;;;;;;;13.33;6.07;;;;;;;22.10;80.78;100004.49;127052;1086;104164;-78
2023/07/14 02:41:40;;;;;;;12.30;5.57;;;;;;;22.08;81.14;100010.73;126975;1086;104299;-79
2023/07/14 02:44:13;;;;;;;15.07;6.13;;;;;;;22.10;81.41;100023.19;126878;1086;104293;-78
2023/07/14 02:46:47;;;;;;;12.47;5.73;;;;;;;22.09;81.38;100032.98;126852;1086;102625;-77
2023/07/14 02:49:16;;;;;;;13.10;5.93;;;;;;;22.10;81.60;100029.41;126904;1086;104185;-78
2023/07/14 02:51:44;;;;;;;18.83;6.33;;;;;;;22.14;82.14;100022.20;126992;1086;102315;-78
2023/07/14 02:54:13;;;;;;;19.40;6.10;;;;;;;22.17;82.62;100023.02;126939;1086;104189;-77
2023/07/14 02:56:42;;;;;;;13.00;5.97;;;;;;;22.22;83.29;100034.52;127113;1086;102070;-77
2023/07/14 02:59:12;;;;;;;12.43;5.73;;;;;;;22.26;83.08;100051.36;126945;1086;102349;-78
2023/07/14 03:01:41;;;;;;;14.23;6.10;;;;;;;22.29;83.45;100045.08;126854;1086;102018;-78
2023/07/14 03:04:09;;;;;;;17.90;6.33;;;;;;;22.31;83.31;100046.83;126886;1086;101842;-78
2023/07/14 03:06:38;;;;;;;16.23;6.60;;;;;;;22.33;82.66;100041.45;127052;1086;101999;-78
2023/07/14 03:09:07;;;;;;;13.03;6.30;;;;;;;22.37;83.22;100025.32;126878;1086;102115;-78
2023/07/14 03:11:35;;;;;;;12.93;6.30;;;;;;;22.41;83.27;100028.83;126912;1086;101944;-79
2023/07/14 03:14:05;;;;;;;14.30;6.43;;;;;;;22.42;83.42;100033.25;126929;1086;101932;-78
2023/07/14 03:16:35;;;;;;;17.97;6.10;;;;;;;22.43;83.29;100037.69;126983;1086;101813;-78
2023/07/14 03:19:04;;;;;;;16.73;6.93;;;;;;;22.45;83.52;100043.87;126944;1086;102101;-78
2023/07/14 03:21:33;;;;;;;15.50;6.30;;;;;;;22.44;82.54;100043.01;126945;1086;104201;-78
2023/07/14 03:24:02;;;;;;;12.57;6.57;;;;;;;22.47;82.59;100046.52;127077;1085;104098;-78
2023/07/14 03:26:31;;;;;;;16.17;6.90;;;;;;;22.46;83.38;100060.82;127307;1086;102219;-78
2023/07/14 03:28:59;;;;;;;16.07;7.20;;;;;;;22.46;83.60;100063.49;127122;1086;102391;-77
2023/07/14 03:31:28;;;;;;;11.70;5.80;;;;;;;22.44;84.22;100059.05;127079;1086;104206;-79
2023/07/14 03:33:56;;;;;;;14.37;6.73;;;;;;;22.46;83.33;100064.36;127394;1086;102051;-79
2023/07/14 03:36:25;;;;;;;13.30;6.40;;;;;;;22.48;82.85;100062.53;127330;1086;102191;-78
2023/07/14 03:39:24;;;;;;;14.23;6.63;;;;;;;22.52;83.81;100074.94;127192;1086;104332;-78
2023/07/14 03:41:54;;;;;;;12.50;6.43;;;;;;;22.50;83.92;100073.19;127126;1086;101864;-78
2023/07/14 03:44:23;;;;;;;13.63;6.53;;;;;;;22.52;84.45;100082.95;127155;1086;102056;-78
2023/07/14 03:46:52;;;;;;;13.47;6.60;;;;;;;22.53;84.12;100073.12;127047;1086;104255;-78
2023/07/14 03:49:21;;;;;;;14.60;6.37;;;;;;;22.54;83.69;100077.58;127053;1086;104188;-78
2023/07/14 03:51:51;;;;;;;12.90;6.67;;;;;;;22.57;84.65;100089.08;126804;1086;102623;-78
2023/07/14 03:54:20;;;;;;;14.63;6.23;;;;;;;22.61;84.39;100088.12;127477;1085;104027;-78
2023/07/14 03:56:48;;;;;;;14.95;6.80;;;;;;;22.63;83.74;100081.87;127384;1086;101973;-79
2023/07/14 03:59:17;;;;;;;15.53;7.07;;;;;;;22.65;84.34;100088.92;127361;1086;101794;-78
2023/07/14 04:01:45;;;;;;;10.83;6.23;;;;;;;22.70;83.78;100088.83;127627;1086;102658;-78
2023/07/14 04:04:16;;;;;;;11.97;6.30;;;;;;;22.74;83.90;100090.54;127028;1086;102249;-79
2023/07/14 04:06:44;;;;;;;14.75;7.50;;;;;;;22.74;84.34;100085.19;127374;1085;103718;-78
2023/07/14 04:09:13;;;;;;;11.47;6.80;;;;;;;22.72;84.00;100066.50;127200;1086;104181;-78
2023/07/14 04:11:41;;;;;;;12.73;6.67;;;;;;;22.68;83.63;100067.47;127256;1086;102038;-78
2023/07/14 04:14:10;;;;;;;13.30;6.93;;;;;;;22.72;83.81;100065.59;126733;1086;101896;-77
2023/07/14 04:16:39;;;;;;;13.60;7.67;;;;;;;22.76;83.86;100075.33;126727;1086;104149;-77
2023/07/14 04:19:08;;;;;;;13.73;7.50;;;;;;;22.77;84.01;100074.42;126783;1086;102214;-77
2023/07/14 04:21:36;;;;;;;12.30;6.67;;;;;;;22.82;84.31;100083.22;126833;1086;104175;-77
2023/07/14 04:24:06;;;;;;;14.30;7.23;;;;;;;22.84;83.87;100076.03;126720;1086;101816;-77
2023/07/14 04:26:36;;;;;;;15.40;7.67;;;;;;;22.92;83.97;100084.80;126865;1086;104245;-77
2023/07/14 04:29:10;;;;;;;13.23;6.80;;;;;;;22.96;83.82;100082.93;126869;1086;101945;-77
2023/07/14 04:31:38;;;;;;;13.33;7.20;;;;;;;22.92;83.39;100099.95;126922;1086;104535;-77
2023/07/14 04:34:07;;;;;;;12.90;6.77;;;;;;;22.86;83.54;100084.94;127199;1085;104242;-78
2023/07/14 04:36:35;;;;;;;12.67;6.70;;;;;;;22.86;84.06;100105.43;127031;1086;104264;-77
2023/07/14 04:39:06;;;;;;;13.37;6.73;;;;;;;22.82;83.50;100101.95;126821;1086;102338;-78
2023/07/14 04:41:36;;;;;;;14.83;7.43;;;;;;;22.81;84.00;100105.52;126946;1086;104162;-78
2023/07/14 04:44:08;;;;;;;12.07;6.87;;;;;;;22.79;83.80;100108.23;126981;1086;102179;-75
2023/07/14 04:46:37;;;;;;;13.53;7.40;;;;;;;22.83;83.60;100106.39;126834;1086;104203;-77
2023/07/14 04:49:06;;;;;;;12.03;7.13;;;;;;;22.82;83.59;100107.30;126998;1086;102069;-76
2023/07/14 04:51:35;;;;;;;12.23;6.87;;;;;;;22.82;83.63;100109.97;127068;1086;102374;-77
2023/07/14 04:54:05;;;;;;;13.50;7.07;;;;;;;22.82;83.71;100125.16;126981;1086;104079;-78
2023/07/14 04:56:37;;;;;;;13.10;6.90;;;;;;;22.77;83.96;100120.77;126772;1086;104181;-77
2023/07/14 04:59:07;;;;;;;12.70;6.93;;;;;;;22.71;83.86;100112.87;126748;1086;104162;-78
2023/07/14 05:01:36;;;;;;;14.47;7.07;;;;;;;22.68;83.31;100109.38;126813;1086;104232;-78
2023/07/14 05:04:05;;;;;;;11.67;7.07;;;;;;;22.72;83.90;100108.39;126767;1086;102133;-77
2023/07/14 05:06:33;;;;;;;13.67;7.13;;;;;;;22.76;83.79;100108.30;126412;1086;104217;-77
2023/07/14 05:09:02;;;;;;;12.33;6.50;;;;;;;22.78;84.19;100108.27;126487;1086;104610;-78
2023/07/14 05:11:31;;;;;;;9.77;6.60;;;;;;;22.82;83.77;100123.34;126436;1086;104184;-77
2023/07/14 05:13:59;;;;;;;12.07;7.10;;;;;;;22.85;83.50;100109.91;127640;1085;104114;-78
2023/07/14 05:16:28;;;;;;;14.27;7.30;;;;;;;22.87;83.63;100115.23;126548;1086;104609;-79
2023/07/14 05:18:59;;;;;;;11.93;6.30;;;;;;;22.86;83.92;100119.70;126537;1086;104207;-79
2023/07/14 05:21:27;;;;;;;15.87;7.20;;;;;;;22.89;83.64;100121.41;126501;1086;104059;-77
2023/07/14 05:23:58;;;;;;;12.17;7.40;;;;;;;22.91;83.46;100131.18;126613;1086;104245;-81
2023/07/14 05:26:27;;;;;;;14.07;6.87;;;;;;;22.97;83.25;100128.37;127823;1086;101892;-75
2023/07/14 05:29:13;;;;;;;11.63;7.00;;;;;;;23.05;83.63;100125.54;126549;1086;101993;-78
2023/07/14 05:31:44;;;;;;;11.60;7.00;;;;;;;23.15;83.16;100123.56;126720;1085;104149;-79
2023/07/14 05:34:14;;;;;;;11.03;7.07;;;;;;;23.22;82.91;100126.97;127929;1085;104210;-79
2023/07/14 05:36:43;;;;;;;13.73;6.67;;;;;;;23.33;83.26;100133.86;126597;1086;101977;-75
2023/07/14 05:39:11;;;;;;;12.83;6.63;;;;;;;23.47;82.80;100135.36;126560;1086;101836;-74
2023/07/14 05:41:40;;;;;;;12.40;7.33;;;;;;;23.53;82.47;100139.66;126891;1086;104276;-79
2023/07/14 05:44:09;;;;;;;13.13;7.63;;;;;;;23.54;82.51;100142.30;126659;1086;104188;-78
2023/07/14 05:46:40;;;;;;;12.87;7.50;;;;;;;23.61;82.01;100151.09;126705;1086;102044;-77
2023/07/14 05:49:09;;;;;;;13.30;7.80;;;;;;;23.66;81.94;100142.02;126687;1086;104261;-79
2023/07/14 05:51:41;;;;;;;14.93;7.47;;;;;;;23.78;81.72;100145.30;126821;1086;101743;-76
2023/07/14 05:54:09;;;;;;;12.87;7.50;;;;;;;24.01;81.36;100160.85;126608;1086;101887;-79
2023/07/14 05:56:43;;;;;;;12.37;7.20;;;;;;;24.12;80.54;100171.30;126760;1086;104207;-75
2023/07/14 05:59:12;;;;;;;13.57;7.17;;;;;;;24.14;80.25;100170.35;126870;1086;101794;-79
2023/07/14 06:01:41;;;;;;;11.10;6.87;;;;;;;24.19;79.33;100168.42;126693;1086;104184;-79
2023/07/14 06:04:09;;;;;;;12.63;7.23;;;;;;;24.24;79.44;100170.98;126718;1086;102211;-78
2023/07/14 06:06:41;;;;;;;10.37;7.07;;;;;;;24.31;79.29;100180.64;126543;1086;103570;-79
2023/07/14 06:09:16;;;;;;;12.93;7.57;;;;;;;24.39;78.48;100181.31;127446;1086;104148;-82
2023/07/14 06:11:46;;;;;;;11.23;7.17;;;;;;;24.57;78.45;100184.45;126871;1086;102073;-81
2023/07/14 06:14:17;;;;;;;11.73;7.17;;;;;;;24.67;78.11;100175.23;126796;1086;104264;-80
2023/07/14 06:16:46;;;;;;;12.30;7.20;;;;;;;24.72;77.86;100167.94;126547;1086;104185;-77
2023/07/14 06:19:20;;;;;;;13.33;7.17;;;;;;;24.75;78.10;100162.48;126589;1086;104286;-76
2023/07/14 06:21:52;;;;;;;11.77;7.20;;;;;;;24.81;76.92;100184.69;127381;1086;102046;-77
2023/07/14 06:24:20;;;;;;;14.10;7.00;;;;;;;24.79;76.47;100186.55;126533;1086;104207;-78
2023/07/14 06:26:49;;;;;;;12.27;7.67;;;;;;;24.75;75.83;100183.08;126408;1085;104213;-76
2023/07/14 06:29:18;;;;;;;11.97;7.40;;;;;;;24.64;75.03;100194.10;126745;1086;104152;-79
2023/07/14 06:31:48;;;;;;;11.73;7.10;;;;;;;24.60;74.69;100188.86;126744;1086;117813;-76
2023/07/14 06:34:18;;;;;;;12.17;7.47;;;;;;;24.60;74.76;100194.22;126882;1086;104166;-75
2023/07/14 06:36:47;;;;;;;11.37;7.07;;;;;;;24.54;74.99;100184.50;127387;1086;102085;-76
2023/07/14 06:39:15;;;;;;;12.30;7.33;;;;;;;24.57;74.07;100190.72;126407;1086;101957;-73
2023/07/14 06:41:44;;;;;;;14.20;7.47;;;;;;;24.61;74.27;100187.95;126375;1086;104219;-75
2023/07/14 06:44:14;;;;;;;12.53;7.17;;;;;;;24.59;73.25;100204.09;126435;1086;104175;-75
2023/07/14 06:46:43;;;;;;;14.20;7.30;;;;;;;24.58;73.25;100196.95;126382;1086;104257;-76
2023/07/14 06:49:12;;;;;;;13.47;7.63;;;;;;;24.61;73.48;100196.00;126390;1086;101842;-77
2023/07/14 06:51:41;;;;;;;13.13;7.83;;;;;;;24.60;72.90;100197.77;127098;1089;101830;-75
2023/07/14 06:54:11;;;;;;;11.97;7.47;;;;;;;24.72;73.12;100196.58;126418;1086;104191;-77
2023/07/14 06:56:40;;;;;;;13.13;7.77;;;;;;;24.84;72.12;100198.02;126349;1085;104229;-76
2023/07/14 06:59:08;;;;;;;13.57;7.20;;;;;;;24.91;72.07;100194.25;126348;1086;104188;-78
2023/07/14 07:01:37;;;;;;;11.97;7.17;;;;;;;24.98;72.20;100198.53;126471;1086;104149;-77
2023/07/14 07:04:08;;;;;;;14.10;6.97;;;;;;;24.90;71.51;100197.84;126452;1086;104223;-75
2023/07/14 07:06:43;;;;;;;10.90;7.07;;;;;;;24.73;71.59;100217.99;126306;1086;102258;-76
2023/07/14 07:09:15;;;;;;;12.40;7.53;;;;;;;24.63;71.49;100213.79;126228;1086;104195;-73
2023/07/14 07:11:56;;;;;;;13.90;7.80;;;;;;;24.48;71.70;100211.48;126229;1086;104324;-74
2023/07/14 07:14:29;;;;;;;13.97;7.80;;;;;;;24.33;71.95;100212.78;126465;1086;102315;-73
2023/07/14 07:17:06;;;;;;;18.40;7.70;;;;;;;24.26;72.19;100206.67;126316;1086;104146;-75
2023/07/14 07:19:40;;;;;;;11.07;6.60;;;;;;;24.29;72.26;100209.27;126963;1086;104194;-79
2023/07/14 07:22:16;;;;;;;13.23;7.70;;;;;;;24.38;72.21;100198.31;127056;1086;104216;-76
2023/07/14 07:24:54;;;;;;;13.90;7.07;;;;;;;24.66;72.38;100211.02;127258;1085;104136;-79
2023/07/14 07:27:52;;;;;;;19.43;7.60;;;;;;;24.75;72.18;100210.77;127622;1085;104024;-77
2023/07/14 07:30:35;;;;;;;14.13;8.00;;;;;;;24.80;71.82;100218.70;126364;1086;101989;-76
2023/07/14 07:33:09;;;;;;;12.27;7.43;;;;;;;24.87;71.49;100232.81;126309;1086;101906;-78
2023/07/14 07:36:14;;;;;;;11.13;6.77;;;;;;;24.93;70.92;100224.59;127479;1086;102309;-79
2023/07/14 07:38:47;;;;;;;14.37;7.60;;;;;;;25.04;70.77;100235.94;127254;1086;103563;-79
2023/07/14 07:41:23;;;;;;;15.00;7.70;;;;;;;25.15;70.35;100245.47;127271;1085;104188;-82
2023/07/14 07:43:55;;;;;;;13.77;7.00;;;;;;;25.28;69.82;100238.83;127124;1086;104228;-78
2023/07/14 07:46:33;;;;;;;14.80;6.93;;;;;;;25.46;70.32;100237.42;126418;1086;104219;-77
2023/07/14 07:49:19;;;;;;;12.90;7.23;;;;;;;25.76;69.63;100248.17;126465;1086;104216;-77
2023/07/14 07:52:18;;;;;;;14.40;7.10;;;;;;;25.81;68.83;100252.45;126410;1085;104222;-76
2023/07/14 07:54:52;;;;;;;11.23;6.37;;;;;;;25.83;68.06;100261.34;126289;1086;104228;-74
2023/07/14 07:57:28;;;;;;;12.80;6.90;;;;;;;25.82;67.40;100267.67;126488;1086;101912;-79
2023/07/14 08:00:03;;;;;;;;;;;;;;;25.72;66.77;100276.06;126559;1086;104159;-77
2023/07/14 08:02:57;;;;;;;12.10;6.95;;;;;;;25.60;66.84;100288.95;127428;1085;102060;-78
2023/07/14 08:05:30;;;;;;;13.67;7.30;;;;;;;25.53;66.38;100286.48;126331;1086;104168;-76
2023/07/14 08:08:04;;;;;;;14.03;7.60;;;;;;;25.55;66.50;100288.18;126423;1086;104299;-77
2023/07/14 08:10:48;;;;;;;16.70;6.57;;;;;;;25.58;65.89;100284.53;127249;1086;104219;-79
2023/07/14 08:13:18;;;;;;;12.10;7.03;;;;;;;25.64;65.87;100276.29;126280;1086;101925;-81
2023/07/14 08:16:10;;;;;;;11.03;6.80;;;;;;;25.74;65.39;100272.41;126504;1086;104168;-80
2023/07/14 08:18:45;;;;;;;10.80;6.80;;;;;;;25.82;64.99;100277.52;127630;1085;104063;-76
2023/07/14 08:21:22;;;;;;;15.17;6.57;;;;;;;25.92;65.16;100279.00;126618;1086;104159;-78
2023/07/14 08:23:58;;;;;;;10.97;6.70;;;;;;;26.10;65.09;100276.69;126659;1086;104236;-78
2023/07/14 08:26:41;;;;;;;11.50;6.57;;;;;;;26.25;63.93;100288.77;127577;1085;104303;-80
2023/07/14 08:29:12;;;;;;;12.53;6.03;;;;;;;26.37;64.29;100277.61;128075;1085;101805;-82
2023/07/14 08:31:50;;;;;;;12.43;6.27;;;;;;;26.48;63.14;100275.42;127918;1085;102251;-81
2023/07/14 08:34:22;;;;;;;12.77;6.50;;;;;;;26.50;62.68;100283.45;126811;1086;101813;-77
2023/07/14 08:36:55;;;;;;;12.07;6.53;;;;;;;26.61;63.03;100269.62;126837;1086;104183;-81
2023/07/14 08:39:28;;;;;;;11.10;6.43;;;;;;;26.82;62.62;100281.51;128112;1086;102181;-78
2023/07/14 08:42:16;;;;;;;10.80;6.55;;;;;;;26.84;61.72;100279.62;126602;1086;101859;-78
2023/07/14 08:45:01;;;;;;;11.73;6.87;;;;;;;26.78;62.05;100271.77;126387;1086;104156;-79
2023/07/14 08:47:46;;;;;;;15.10;6.70;;;;;;;26.73;61.49;100275.48;126464;1086;104264;-76
2023/07/14 08:50:23;;;;;;;12.47;7.00;;;;;;;26.59;61.20;100261.61;126356;1086;104228;-76
2023/07/14 08:52:54;;;;;;;14.43;6.53;;;;;;;26.54;61.53;100267.14;127534;1085;104229;-80
2023/07/14 08:55:27;;;;;;;13.47;6.67;;;;;;;26.57;61.74;100265.27;128062;1085;104179;-79
2023/07/14 08:58:04;;;;;;;11.17;6.57;;;;;;;26.61;60.85;100266.94;127902;1086;101765;-77
2023/07/14 09:00:46;;;;;;;14.70;7.27;;;;;;;26.61;61.01;100273.19;128216;1085;104162;-80
2023/07/14 09:03:24;;;;;;;13.07;6.37;;;;;;;26.72;61.29;100278.23;126476;1086;104155;-77
2023/07/14 09:05:58;;;;;;;12.73;6.57;;;;;;;26.69;60.13;100281.03;126235;1086;104238;-74
2023/07/14 09:08:29;;;;;;;13.40;7.63;;;;;;;26.69;60.36;100272.95;126710;1086;104717;-80
2023/07/14 09:11:05;;;;;;;15.97;7.00;;;;;;;26.73;59.65;100271.93;126700;1086;104187;-80
2023/07/14 09:13:49;;;;;;;14.43;6.60;;;;;;;26.80;59.44;100268.10;126799;1086;101871;-79
2023/07/14 09:16:21;;;;;;;11.80;6.57;;;;;;;26.79;59.23;100266.33;126891;1086;102254;-78
2023/07/14 09:19:00;;;;;;;12.00;7.00;;;;;;;26.73;59.00;100262.03;126506;1086;104162;-77
2023/07/14 09:21:37;;;;;;;9.67;6.47;;;;;;;26.73;59.32;100259.34;126474;1086;104248;-78
2023/07/14 09:24:15;;;;;;;9.67;6.40;;;;;;;26.75;59.38;100261.11;126363;1086;101826;-79
2023/07/14 09:26:52;;;;;;;10.60;6.63;;;;;;;26.83;58.82;100257.23;127242;1086;104235;-78
2023/07/14 09:29:33;;;;;;;12.97;6.37;;;;;;;26.88;58.62;100252.55;127056;1086;104229;-80
2023/07/14 09:32:13;;;;;;;11.60;6.50;;;;;;;26.88;58.09;100249.86;126327;1086;102064;-75
2023/07/14 09:34:46;;;;;;;12.67;6.77;;;;;;;26.96;57.80;100263.05;127480;1085;104207;-83
2023/07/14 09:37:20;;;;;;;10.43;6.37;;;;;;;27.01;57.62;100254.80;126715;1086;107043;-79
2023/07/14 09:40:03;;;;;;;9.20;6.20;;;;;;;27.02;56.94;100256.53;127382;1086;104229;-78
2023/07/14 09:42:39;;;;;;;14.23;6.83;;;;;;;27.01;57.03;100246.72;127874;1085;101952;-79
2023/07/14 09:45:19;;;;;;;11.37;6.10;;;;;;;27.01;57.00;100247.59;127008;1086;104293;-84
2023/07/14 09:47:56;;;;;;;12.40;6.40;;;;;;;27.10;56.41;100235.61;127734;1086;101796;-82
2023/07/14 09:50:27;;;;;;;11.83;6.13;;;;;;;27.19;56.83;100247.84;127567;1086;101905;-85
2023/07/14 09:53:01;;;;;;;9.23;6.17;;;;;;;27.28;56.23;100250.19;127026;1086;104600;-83
2023/07/14 09:55:42;;;;;;;11.30;6.15;;;;;;;27.26;56.09;100242.17;127738;1086;104156;-79
2023/07/14 09:58:17;;;;;;;11.63;6.60;;;;;;;27.24;56.06;100246.74;126567;1086;101903;-78
2023/07/14 10:00:50;;;;;;;9.60;6.00;;;;;;;27.31;56.12;100242.03;126614;1086;101980;-78
2023/07/14 10:03:19;;;;;;;12.90;6.10;;;;;;;27.38;56.37;100240.87;126913;1086;104172;-82
2023/07/14 10:05:55;;;;;;;8.60;5.77;;;;;;;27.42;55.26;100253.27;127565;1086;102025;-81
2023/07/14 10:08:31;;;;;;;10.97;5.70;;;;;;;27.35;55.39;100250.89;127903;1085;104162;-77
2023/07/14 10:11:19;;;;;;;11.35;5.85;;;;;;;27.27;55.24;100256.53;126687;1086;102033;-79
2023/07/14 10:13:53;;;;;;;13.67;6.23;;;;;;;27.32;55.43;100267.17;127402;1085;104152;-79
2023/07/14 10:16:22;;;;;;;12.47;6.00;;;;;;;27.26;55.30;100263.72;127471;1086;102207;-76
2023/07/14 10:18:57;;;;;;;11.50;5.53;;;;;;;27.35;54.59;100261.67;126579;1086;104293;-77
2023/07/14 10:21:32;;;;;;;11.27;5.37;;;;;;;27.37;54.25;100260.66;127555;1086;102201;-79
2023/07/14 10:24:15;;;;;;;11.60;5.33;;;;;;;27.43;54.34;100262.25;127580;1086;104300;-77
2023/07/14 10:26:57;;;;;;;13.03;5.73;;;;;;;27.42;53.46;100265.87;127224;1086;104196;-77
2023/07/14 10:29:45;;;;;;;8.67;5.53;;;;;;;27.53;53.96;100260.94;126811;1086;101868;-76
2023/07/14 10:32:24;;;;;;;10.30;5.83;;;;;;;27.52;52.73;100259.20;127677;1086;101902;-75
2023/07/14 10:34:59;;;;;;;11.30;4.93;;;;;;;27.44;53.47;100267.58;126363;1086;104330;-77
2023/07/14 10:37:31;;;;;;;9.70;5.10;;;;;;;27.50;53.30;100266.45;126340;1086;104188;-73
2023/07/14 10:40:04;;;;;;;7.47;5.23;;;;;;;27.44;53.09;100272.06;126248;1086;104225;-72
2023/07/14 10:42:38;;;;;;;10.60;5.12;;;;;;;27.30;53.13;100266.30;127134;1086;104239;-72
2023/07/14 10:45:12;;;;;;;11.40;5.50;;;;;;;27.41;53.36;100266.80;126389;1085;102359;-74
2023/07/14 10:47:49;;;;;;;9.27;5.00;;;;;;;27.53;52.59;100269.02;126379;1086;104166;-73
2023/07/14 10:50:24;;;;;;;7.83;4.43;;;;;;;27.69;52.38;100265.73;126371;1086;104257;-74
2023/07/14 10:52:59;;;;;;;9.00;4.90;;;;;;;27.72;52.41;100261.13;126323;1086;104241;-77
2023/07/14 10:55:31;;;;;;;7.20;4.77;;;;;;;27.81;52.09;100265.25;126343;1086;101892;-73
2023/07/14 10:58:17;;;;;;;11.87;5.00;;;;;;;27.86;51.76;100267.77;127585;1085;102143;-78
2023/07/14 11:00:52;;;;;;;10.63;4.70;;;;;;;27.88;51.70;100277.56;126402;1086;104235;-75
2023/07/14 11:06:17;;;;;;;8.70;4.50;;;;;;;27.93;50.57;100280.95;126648;1086;104296;-77
2023/07/14 11:08:52;;;;;;;6.50;4.50;;;;;;;27.94;50.39;100276.42;127346;1085;104066;-76
2023/07/14 11:11:29;;;;;;;9.23;4.30;;;;;;;27.98;50.17;100292.45;127461;1086;102267;-77
2023/07/14 11:14:17;;;;;;;7.23;4.30;;;;;;;27.94;50.05;100303.39;126297;1086;104223;-77
2023/07/14 11:17:04;;;;;;;8.37;5.17;;;;;;;27.80;50.22;100285.09;126283;1086;101813;-76
2023/07/14 11:19:47;;;;;;;11.03;4.10;;;;;;;27.71;49.61;100291.70;126283;1085;117777;-75
2023/07/14 11:22:29;;;;;;;8.90;4.35;;;;;;;27.65;50.39;100293.77;126377;1086;104232;-78
2023/07/14 11:25:11;;;;;;;7.07;4.40;;;;;;;27.58;50.42;100294.00;126554;1086;104031;-76
2023/07/14 11:27:47;;;;;;;6.77;4.13;;;;;;;27.69;49.86;100288.20;126554;1086;101960;-75
2023/07/14 11:30:23;;;;;;;6.47;3.93;;;;;;;27.78;49.84;100287.84;126324;1086;104169;-75
2023/07/14 11:33:02;;;;;;;8.70;4.57;;;;;;;27.89;49.84;100286.52;126114;1089;104291;-75
2023/07/14 11:35:35;;;;;;;10.13;4.40;;;;;;;27.75;48.71;100297.84;126387;1086;102277;-78